Terminal Aerodrome Forecast
Issued by NWS

Home | Current Version | Previous Version | Text Only | Print | Product List | Glossary On
Versions: 1 2 3 4 5 6 7 8 9 10 11 12 13 14 15 16 17 18 19 20 21 22 23 24 25 26
370
FTUS41 KOKX 241929 AAA
TAFHPN
TAF AMD
KHPN 241929Z 2419/2518 29007KT P6SM VCTS SCT050CB BKN120
     FM250000 VRB03KT P6SM BKN120
     FM250400 VRB04KT 5SM BR SKC
     FM251200 29007KT P6SM SKC
      AMD NOT SKED=

USA.gov is the U.S. government's official web portal to all federal, state and local government web resources and services.